sensor_id;sensor_type;location;lat;lon;timestamp;pressure;altitude;pressure_sealevel;temperature;humidity
75640;BME280;64233;51.486;6.332;2023-08-06T00:00:19;100177.13;;;14.60;100.00
75640;BME280;64233;51.486;6.332;2023-08-06T00:02:45;100176.94;;;14.56;100.00
75640;BME280;64233;51.486;6.332;2023-08-06T00:05:10;100176.41;;;14.54;100.00
75640;BME280;64233;51.486;6.332;2023-08-06T00:07:36;100176.66;;;14.58;100.00
75640;BME280;64233;51.486;6.332;2023-08-06T00:10:01;100176.66;;;14.58;100.00
75640;BME280;64233;51.486;6.332;2023-08-06T00:12:26;100179.13;;;14.54;100.00
75640;BME280;64233;51.486;6.332;2023-08-06T00:14:52;100164.19;;;14.62;100.00
75640;BME280;64233;51.486;6.332;2023-08-06T00:17:18;100166.34;;;14.60;100.00
75640;BME280;64233;51.486;6.332;2023-08-06T00:19:43;100163.59;;;14.65;100.00
75640;BME280;64233;51.486;6.332;2023-08-06T00:22:09;100162.00;;;14.64;100.00
75640;BME280;64233;51.486;6.332;2023-08-06T00:24:34;100152.50;;;14.67;100.00
75640;BME280;64233;51.486;6.332;2023-08-06T00:27:00;100153.59;;;14.66;100.00
75640;BME280;64233;51.486;6.332;2023-08-06T00:29:25;100150.97;;;14.60;100.00
75640;BME280;64233;51.486;6.332;2023-08-06T00:31:51;100153.94;;;14.59;100.00
75640;BME280;64233;51.486;6.332;2023-08-06T00:34:16;100150.53;;;14.53;100.00
75640;BME280;64233;51.486;6.332;2023-08-06T00:36:41;100152.69;;;14.51;100.00
75640;BME280;64233;51.486;6.332;2023-08-06T00:39:06;100152.78;;;14.46;100.00
75640;BME280;64233;51.486;6.332;2023-08-06T00:41:32;100151.19;;;14.45;100.00
75640;BME280;64233;51.486;6.332;2023-08-06T00:43:58;100152.78;;;14.46;100.00
75640;BME280;64233;51.486;6.332;2023-08-06T00:46:23;100140.72;;;14.38;100.00
75640;BME280;64233;51.486;6.332;2023-08-06T00:48:49;100147.38;;;14.46;100.00
75640;BME280;64233;51.486;6.332;2023-08-06T00:51:16;100146.50;;;14.51;100.00
75640;BME280;64233;51.486;6.332;2023-08-06T00:53:42;100156.78;;;14.49;100.00
75640;BME280;64233;51.486;6.332;2023-08-06T00:56:08;100144.88;;;14.50;100.00
75640;BME280;64233;51.486;6.332;2023-08-06T00:58:35;100140.81;;;14.52;100.00
75640;BME280;64233;51.486;6.332;2023-08-06T01:01:01;100152.78;;;14.46;100.00
75640;BME280;64233;51.486;6.332;2023-08-06T01:03:26;100151.19;;;14.45;100.00
75640;BME280;64233;51.486;6.332;2023-08-06T01:05:52;100144.50;;;14.37;100.00
75640;BME280;64233;51.486;6.332;2023-08-06T01:08:32;100146.78;;;14.30;100.00
75640;BME280;64233;51.486;6.332;2023-08-06T01:11:19;100141.81;;;14.37;100.00
75640;BME280;64233;51.486;6.332;2023-08-06T01:13:54;100148.34;;;14.36;100.00
75640;BME280;64233;51.486;6.332;2023-08-06T01:16:23;100149.19;;;14.32;100.00
75640;BME280;64233;51.486;6.332;2023-08-06T01:18:49;100147.31;;;14.32;100.00
75640;BME280;64233;51.486;6.332;2023-08-06T01:21:15;100153.19;;;14.34;100.00
75640;BME280;64233;51.486;6.332;2023-08-06T01:23:42;100146.72;;;14.35;100.00
75640;BME280;64233;51.486;6.332;2023-08-06T01:26:30;100146.47;;;14.32;100.00
75640;BME280;64233;51.486;6.332;2023-08-06T01:31:43;100144.81;;;14.36;100.00
75640;BME280;64233;51.486;6.332;2023-08-06T01:34:13;100155.06;;;14.39;100.00
75640;BME280;64233;51.486;6.332;2023-08-06T01:36:40;100150.75;;;14.38;100.00
75640;BME280;64233;51.486;6.332;2023-08-06T01:39:07;100148.03;;;14.38;100.00
75640;BME280;64233;51.486;6.332;2023-08-06T01:41:32;100146.94;;;14.39;100.00
75640;BME280;64233;51.486;6.332;2023-08-06T01:43:57;100148.78;;;14.43;100.00
75640;BME280;64233;51.486;6.332;2023-08-06T01:46:22;100143.97;;;14.40;100.00
75640;BME280;64233;51.486;6.332;2023-08-06T01:48:48;100145.84;;;14.40;100.00
75640;BME280;64233;51.486;6.332;2023-08-06T01:51:13;100132.03;;;14.41;100.00
75640;BME280;64233;51.486;6.332;2023-08-06T01:53:38;100136.41;;;14.37;100.00
75640;BME280;64233;51.486;6.332;2023-08-06T01:56:04;100128.91;;;14.34;100.00
75640;BME280;64233;51.486;6.332;2023-08-06T01:58:29;100127.75;;;14.40;100.00
75640;BME280;64233;51.486;6.332;2023-08-06T02:00:54;100138.25;;;14.42;100.00
75640;BME280;64233;51.486;6.332;2023-08-06T02:03:19;100127.75;;;14.40;100.00
75640;BME280;64233;51.486;6.332;2023-08-06T02:05:45;100136.22;;;14.34;100.00
75640;BME280;64233;51.486;6.332;2023-08-06T02:08:11;100129.72;;;14.35;100.00
75640;BME280;64233;51.486;6.332;2023-08-06T02:10:36;100125.63;;;14.37;100.00
75640;BME280;64233;51.486;6.332;2023-08-06T02:13:01;100126.16;;;14.39;100.00
75640;BME280;64233;51.486;6.332;2023-08-06T02:15:26;100122.66;;;14.39;100.00
75640;BME280;64233;51.486;6.332;2023-08-06T02:17:52;100107.75;;;14.41;100.00
75640;BME280;64233;51.486;6.332;2023-08-06T02:20:17;100108.19;;;14.49;100.00
75640;BME280;64233;51.486;6.332;2023-08-06T02:22:42;100105.28;;;14.45;100.00
75640;BME280;64233;51.486;6.332;2023-08-06T02:25:08;100102.94;;;14.38;100.00
75640;BME280;64233;51.486;6.332;2023-08-06T02:27:33;100091.03;;;14.39;100.00
75640;BME280;64233;51.486;6.332;2023-08-06T02:29:58;100103.38;;;14.45;100.00
75640;BME280;64233;51.486;6.332;2023-08-06T02:32:24;100090.38;;;14.48;100.00
75640;BME280;64233;51.486;6.332;2023-08-06T02:34:49;100097.38;;;14.49;100.00
75640;BME280;64233;51.486;6.332;2023-08-06T02:37:14;100100.66;;;14.45;100.00
75640;BME280;64233;51.486;6.332;2023-08-06T02:39:39;100094.25;;;14.41;100.00
75640;BME280;64233;51.486;6.332;2023-08-06T02:42:07;100095.84;;;14.42;100.00
75640;BME280;64233;51.486;6.332;2023-08-06T02:44:32;100093.16;;;14.42;100.00
75640;BME280;64233;51.486;6.332;2023-08-06T02:46:58;100093.94;;;14.43;100.00
75640;BME280;64233;51.486;6.332;2023-08-06T02:49:24;100088.28;;;14.44;100.00
75640;BME280;64233;51.486;6.332;2023-08-06T02:51:49;100086.66;;;14.43;100.00
75640;BME280;64233;51.486;6.332;2023-08-06T02:54:14;100091.25;;;14.43;100.00
75640;BME280;64233;51.486;6.332;2023-08-06T02:56:43;100095.34;;;14.40;100.00
75640;BME280;64233;51.486;6.332;2023-08-06T02:59:09;100095.66;;;14.39;100.00
75640;BME280;64233;51.486;6.332;2023-08-06T03:01:34;100093.81;;;14.34;100.00
75640;BME280;64233;51.486;6.332;2023-08-06T03:04:01;100092.50;;;14.32;100.00
75640;BME280;64233;51.486;6.332;2023-08-06T03:06:26;100093.03;;;14.34;100.00
75640;BME280;64233;51.486;6.332;2023-08-06T03:08:51;100084.63;;;14.35;100.00
75640;BME280;64233;51.486;6.332;2023-08-06T03:11:16;100085.41;;;14.36;100.00
75640;BME280;64233;51.486;6.332;2023-08-06T03:13:42;100083.75;;;14.40;100.00
75640;BME280;64233;51.486;6.332;2023-08-06T03:16:07;100080.59;;;14.33;100.00
75640;BME280;64233;51.486;6.332;2023-08-06T03:18:32;100085.28;;;14.27;100.00
75640;BME280;64233;51.486;6.332;2023-08-06T03:20:57;100077.53;;;14.20;100.00
75640;BME280;64233;51.486;6.332;2023-08-06T03:23:23;100083.81;;;14.16;100.00
75640;BME280;64233;51.486;6.332;2023-08-06T03:25:48;100083.53;;;14.17;100.00
75640;BME280;64233;51.486;6.332;2023-08-06T03:28:13;100081.06;;;14.21;100.00
75640;BME280;64233;51.486;6.332;2023-08-06T03:30:39;100081.13;;;14.16;100.00
75640;BME280;64233;51.486;6.332;2023-08-06T03:33:04;100075.00;;;14.10;100.00
75640;BME280;64233;51.486;6.332;2023-08-06T03:35:30;100069.00;;;14.13;100.00
75640;BME280;64233;51.486;6.332;2023-08-06T03:37:55;100067.84;;;14.00;100.00
75640;BME280;64233;51.486;6.332;2023-08-06T03:40:21;100059.16;;;14.03;100.00
75640;BME280;64233;51.486;6.332;2023-08-06T03:42:46;100063.47;;;14.04;100.00
75640;BME280;64233;51.486;6.332;2023-08-06T03:45:11;100066.69;;;14.06;100.00
75640;BME280;64233;51.486;6.332;2023-08-06T03:47:36;100066.16;;;14.04;100.00
75640;BME280;64233;51.486;6.332;2023-08-06T03:50:02;100058.22;;;13.94;100.00
75640;BME280;64233;51.486;6.332;2023-08-06T03:52:27;100071.19;;;13.92;100.00
75640;BME280;64233;51.486;6.332;2023-08-06T03:54:52;100080.88;;;13.93;100.00
75640;BME280;64233;51.486;6.332;2023-08-06T03:57:18;100081.19;;;13.91;100.00
75640;BME280;64233;51.486;6.332;2023-08-06T03:59:43;100080.16;;;13.87;100.00
75640;BME280;64233;51.486;6.332;2023-08-06T04:02:08;100076.66;;;13.87;100.00
75640;BME280;64233;51.486;6.332;2023-08-06T04:04:34;100073.13;;;13.86;100.00
75640;BME280;64233;51.486;6.332;2023-08-06T04:06:59;100085.09;;;13.80;100.00
75640;BME280;64233;51.486;6.332;2023-08-06T04:09:24;100083.56;;;13.74;100.00
75640;BME280;64233;51.486;6.332;2023-08-06T04:11:50;100073.72;;;13.64;100.00
75640;BME280;64233;51.486;6.332;2023-08-06T04:14:15;100080.03;;;13.54;100.00
75640;BME280;64233;51.486;6.332;2023-08-06T04:16:40;100080.94;;;13.45;100.00
75640;BME280;64233;51.486;6.332;2023-08-06T04:19:05;100075.84;;;13.43;100.00
75640;BME280;64233;51.486;6.332;2023-08-06T04:21:31;100079.56;;;13.47;100.00
75640;BME280;64233;51.486;6.332;2023-08-06T04:23:56;100086.00;;;13.51;100.00
75640;BME280;64233;51.486;6.332;2023-08-06T04:26:22;100087.66;;;13.47;100.00
75640;BME280;64233;51.486;6.332;2023-08-06T04:28:47;100089.47;;;13.52;100.00
75640;BME280;64233;51.486;6.332;2023-08-06T04:31:12;100098.56;;;13.61;100.00
75640;BME280;64233;51.486;6.332;2023-08-06T04:33:37;100090.28;;;13.76;100.00
75640;BME280;64233;51.486;6.332;2023-08-06T04:36:03;100087.94;;;13.70;100.00
75640;BME280;64233;51.486;6.332;2023-08-06T04:38:28;100094.16;;;13.89;100.00
75640;BME280;64233;51.486;6.332;2023-08-06T04:40:54;100091.47;;;14.08;100.00
75640;BME280;64233;51.486;6.332;2023-08-06T04:43:19;100088.91;;;14.17;100.00
75640;BME280;64233;51.486;6.332;2023-08-06T04:45:49;100090.25;;;14.20;100.00
75640;BME280;64233;51.486;6.332;2023-08-06T04:48:14;100091.56;;;14.22;100.00
75640;BME280;64233;51.486;6.332;2023-08-06T04:50:47;100089.16;;;14.21;100.00
75640;BME280;64233;51.486;6.332;2023-08-06T04:53:12;100088.13;;;14.17;100.00
75640;BME280;64233;51.486;6.332;2023-08-06T04:55:38;100090.53;;;14.18;100.00
75640;BME280;64233;51.486;6.332;2023-08-06T04:58:04;100092.44;;;14.18;100.00
75640;BME280;64233;51.486;6.332;2023-08-06T05:00:29;100093.59;;;14.11;100.00
75640;BME280;64233;51.486;6.332;2023-08-06T05:02:55;100095.56;;;14.06;100.00
75640;BME280;64233;51.486;6.332;2023-08-06T05:05:20;100098.53;;;14.04;100.00
75640;BME280;64233;51.486;6.332;2023-08-06T05:07:48;100089.22;;;13.97;100.00
75640;BME280;64233;51.486;6.332;2023-08-06T05:10:14;100095.19;;;13.93;100.00
75640;BME280;64233;51.486;6.332;2023-08-06T05:12:39;100086.56;;;13.91;100.00
75640;BME280;64233;51.486;6.332;2023-08-06T05:15:05;100097.81;;;13.99;100.00
75640;BME280;64233;51.486;6.332;2023-08-06T05:17:30;100095.06;;;14.04;100.00
75640;BME280;64233;51.486;6.332;2023-08-06T05:19:55;100094.41;;;14.12;100.00
75640;BME280;64233;51.486;6.332;2023-08-06T05:22:21;100107.97;;;14.26;100.00
75640;BME280;64233;51.486;6.332;2023-08-06T05:24:46;100109.34;;;14.80;100.00
75640;BME280;64233;51.486;6.332;2023-08-06T05:27:11;100100.81;;;15.20;100.00
75640;BME280;64233;51.486;6.332;2023-08-06T05:29:37;100092.63;;;15.11;100.00
75640;BME280;64233;51.486;6.332;2023-08-06T05:32:02;100095.41;;;15.06;100.00
75640;BME280;64233;51.486;6.332;2023-08-06T05:34:27;100102.03;;;14.81;100.00
75640;BME280;64233;51.486;6.332;2023-08-06T05:36:52;100098.03;;;14.59;100.00
75640;BME280;64233;51.486;6.332;2023-08-06T05:39:18;100101.03;;;14.58;100.00
75640;BME280;64233;51.486;6.332;2023-08-06T05:41:43;100110.09;;;14.48;100.00
75640;BME280;64233;51.486;6.332;2023-08-06T05:44:08;100109.50;;;14.51;100.00
75640;BME280;64233;51.486;6.332;2023-08-06T05:46:37;100113.75;;;14.57;100.00
75640;BME280;64233;51.486;6.332;2023-08-06T05:49:02;100118.28;;;14.62;100.00
75640;BME280;64233;51.486;6.332;2023-08-06T05:51:28;100119.91;;;14.63;100.00
75640;BME280;64233;51.486;6.332;2023-08-06T05:53:54;100118.72;;;14.69;100.00
75640;BME280;64233;51.486;6.332;2023-08-06T05:56:19;100131.03;;;14.56;100.00
75640;BME280;64233;51.486;6.332;2023-08-06T05:58:44;100118.41;;;14.52;100.00
75640;BME280;64233;51.486;6.332;2023-08-06T06:01:11;100120.69;;;14.63;100.00
75640;BME280;64233;51.486;6.332;2023-08-06T06:03:37;100124.75;;;14.61;100.00
75640;BME280;64233;51.486;6.332;2023-08-06T06:06:02;100128.50;;;14.65;100.00
75640;BME280;64233;51.486;6.332;2023-08-06T06:08:27;100137.75;;;14.59;100.00
75640;BME280;64233;51.486;6.332;2023-08-06T06:10:52;100142.50;;;14.67;100.00
75640;BME280;64233;51.486;6.332;2023-08-06T06:13:18;100141.16;;;14.84;100.00
75640;BME280;64233;51.486;6.332;2023-08-06T06:15:43;100141.22;;;14.97;100.00
75640;BME280;64233;51.486;6.332;2023-08-06T06:18:08;100137.50;;;14.93;100.00
75640;BME280;64233;51.486;6.332;2023-08-06T06:20:34;100145.06;;;15.10;100.00
75640;BME280;64233;51.486;6.332;2023-08-06T06:22:59;100137.97;;;15.14;100.00
75640;BME280;64233;51.486;6.332;2023-08-06T06:25:24;100136.78;;;15.35;100.00
75640;BME280;64233;51.486;6.332;2023-08-06T06:27:50;100140.72;;;15.42;100.00
75640;BME280;64233;51.486;6.332;2023-08-06T06:30:15;100145.69;;;15.21;100.00
75640;BME280;64233;51.486;6.332;2023-08-06T06:32:40;100141.78;;;15.27;100.00
75640;BME280;64233;51.486;6.332;2023-08-06T06:35:06;100156.06;;;15.61;100.00
75640;BME280;64233;51.486;6.332;2023-08-06T06:37:31;100153.91;;;15.91;100.00
75640;BME280;64233;51.486;6.332;2023-08-06T06:39:57;100144.25;;;16.12;100.00
75640;BME280;64233;51.486;6.332;2023-08-06T06:42:22;100148.44;;;16.18;100.00
75640;BME280;64233;51.486;6.332;2023-08-06T06:44:48;100145.34;;;15.97;100.00
75640;BME280;64233;51.486;6.332;2023-08-06T06:47:13;100151.75;;;16.01;100.00
75640;BME280;64233;51.486;6.332;2023-08-06T06:49:38;100149.56;;;16.04;100.00
75640;BME280;64233;51.486;6.332;2023-08-06T06:52:04;100148.97;;;16.07;100.00
75640;BME280;64233;51.486;6.332;2023-08-06T06:54:30;100156.06;;;16.16;100.00
75640;BME280;64233;51.486;6.332;2023-08-06T06:56:55;100145.22;;;16.30;100.00
75640;BME280;64233;51.486;6.332;2023-08-06T06:59:20;100151.56;;;16.48;100.00
75640;BME280;64233;51.486;6.332;2023-08-06T07:01:45;100151.19;;;16.41;100.00
75640;BME280;64233;51.486;6.332;2023-08-06T07:04:11;100148.38;;;16.46;100.00
75640;BME280;64233;51.486;6.332;2023-08-06T07:06:36;100154.91;;;16.31;100.00
75640;BME280;64233;51.486;6.332;2023-08-06T07:09:01;100152.06;;;16.14;100.00
75640;BME280;64233;51.486;6.332;2023-08-06T07:11:27;100161.09;;;16.09;100.00
75640;BME280;64233;51.486;6.332;2023-08-06T07:13:58;100153.66;;;16.15;100.00
75640;BME280;64233;51.486;6.332;2023-08-06T07:16:24;100159.88;;;16.15;100.00
75640;BME280;64233;51.486;6.332;2023-08-06T07:18:51;100156.56;;;16.18;100.00
75640;BME280;64233;51.486;6.332;2023-08-06T07:21:17;100167.47;;;16.27;100.00
75640;BME280;64233;51.486;6.332;2023-08-06T07:23:43;100170.59;;;16.34;100.00
75640;BME280;64233;51.486;6.332;2023-08-06T07:26:08;100168.47;;;16.31;100.00
75640;BME280;64233;51.486;6.332;2023-08-06T07:28:34;100168.97;;;16.33;100.00
75640;BME280;64233;51.486;6.332;2023-08-06T07:30:59;100170.47;;;16.40;100.00
75640;BME280;64233;51.486;6.332;2023-08-06T07:33:25;100176.38;;;16.42;100.00
75640;BME280;64233;51.486;6.332;2023-08-06T07:35:50;100174.13;;;16.58;100.00
75640;BME280;64233;51.486;6.332;2023-08-06T07:38:15;100176.06;;;16.57;100.00
75640;BME280;64233;51.486;6.332;2023-08-06T07:40:41;100178.81;;;16.66;100.00
75640;BME280;64233;51.486;6.332;2023-08-06T07:43:06;100176.97;;;16.75;100.00
75640;BME280;64233;51.486;6.332;2023-08-06T07:45:35;100172.31;;;16.90;100.00
75640;BME280;64233;51.486;6.332;2023-08-06T07:48:01;100178.94;;;16.97;100.00
75640;BME280;64233;51.486;6.332;2023-08-06T07:50:26;100173.63;;;17.15;100.00
75640;BME280;64233;51.486;6.332;2023-08-06T07:52:51;100165.38;;;17.20;100.00
75640;BME280;64233;51.486;6.332;2023-08-06T07:55:17;100169.34;;;17.45;100.00
75640;BME280;64233;51.486;6.332;2023-08-06T07:57:42;100169.34;;;17.45;100.00
75640;BME280;64233;51.486;6.332;2023-08-06T08:00:08;100171.44;;;17.57;100.00
75640;BME280;64233;51.486;6.332;2023-08-06T08:02:34;100176.81;;;17.40;100.00
75640;BME280;64233;51.486;6.332;2023-08-06T08:04:59;100176.59;;;17.36;100.00
75640;BME280;64233;51.486;6.332;2023-08-06T08:07:25;100176.28;;;17.37;100.00
75640;BME280;64233;51.486;6.332;2023-08-06T08:09:52;100168.59;;;17.31;100.00
75640;BME280;64233;51.486;6.332;2023-08-06T08:12:18;100179.91;;;17.01;100.00
75640;BME280;64233;51.486;6.332;2023-08-06T08:14:43;100179.06;;;16.78;100.00
75640;BME280;64233;51.486;6.332;2023-08-06T08:17:10;100187.19;;;16.92;100.00
75640;BME280;64233;51.486;6.332;2023-08-06T08:19:36;100188.38;;;17.00;100.00
75640;BME280;64233;51.486;6.332;2023-08-06T08:22:01;100192.22;;;17.08;100.00
75640;BME280;64233;51.486;6.332;2023-08-06T08:24:26;100199.44;;;17.12;100.00
75640;BME280;64233;51.486;6.332;2023-08-06T08:26:52;100203.69;;;17.59;100.00
75640;BME280;64233;51.486;6.332;2023-08-06T08:29:19;100199.22;;;17.54;100.00
75640;BME280;64233;51.486;6.332;2023-08-06T08:31:45;100201.66;;;17.64;100.00
75640;BME280;64233;51.486;6.332;2023-08-06T08:34:10;100195.44;;;17.64;100.00
75640;BME280;64233;51.486;6.332;2023-08-06T08:36:36;100205.06;;;17.79;100.00
75640;BME280;64233;51.486;6.332;2023-08-06T08:39:01;100202.81;;;17.72;100.00
75640;BME280;64233;51.486;6.332;2023-08-06T08:41:30;100198.63;;;17.66;100.00
75640;BME280;64233;51.486;6.332;2023-08-06T08:43:58;100208.59;;;17.79;100.00
75640;BME280;64233;51.486;6.332;2023-08-06T08:46:25;100207.47;;;17.49;100.00
75640;BME280;64233;51.486;6.332;2023-08-06T08:48:51;100207.50;;;17.58;100.00
75640;BME280;64233;51.486;6.332;2023-08-06T08:51:16;100215.00;;;17.83;100.00
75640;BME280;64233;51.486;6.332;2023-08-06T08:53:44;100205.00;;;18.01;100.00
75640;BME280;64233;51.486;6.332;2023-08-06T08:56:12;100215.31;;;18.31;100.00
75640;BME280;64233;51.486;6.332;2023-08-06T08:58:38;100205.84;;;18.11;100.00
75640;BME280;64233;51.486;6.332;2023-08-06T09:01:03;100206.81;;;18.15;100.00
75640;BME280;64233;51.486;6.332;2023-08-06T09:03:29;100207.00;;;18.27;100.00
75640;BME280;64233;51.486;6.332;2023-08-06T09:05:56;100209.75;;;18.53;100.00
75640;BME280;64233;51.486;6.332;2023-08-06T09:08:27;100208.00;;;18.49;100.00
75640;BME280;64233;51.486;6.332;2023-08-06T09:10:53;100215.34;;;18.48;100.00
75640;BME280;64233;51.486;6.332;2023-08-06T09:13:18;100220.16;;;18.78;100.00
75640;BME280;64233;51.486;6.332;2023-08-06T09:15:45;100224.31;;;18.84;100.00
75640;BME280;64233;51.486;6.332;2023-08-06T09:18:11;100219.69;;;19.10;100.00
75640;BME280;64233;51.486;6.332;2023-08-06T09:20:38;100225.09;;;18.49;100.00
75640;BME280;64233;51.486;6.332;2023-08-06T09:23:10;100221.75;;;18.52;100.00
75640;BME280;64233;51.486;6.332;2023-08-06T09:25:38;100223.13;;;18.15;100.00
75640;BME280;64233;51.486;6.332;2023-08-06T09:28:05;100234.56;;;17.71;100.00
75640;BME280;64233;51.486;6.332;2023-08-06T09:30:36;100237.28;;;17.40;100.00
75640;BME280;64233;51.486;6.332;2023-08-06T09:33:01;100238.06;;;17.41;100.00
75640;BME280;64233;51.486;6.332;2023-08-06T09:35:31;100237.31;;;17.49;100.00
75640;BME280;64233;51.486;6.332;2023-08-06T09:38:09;100253.88;;;17.70;100.00
75640;BME280;64233;51.486;6.332;2023-08-06T09:40:36;100255.56;;;17.57;100.00
75640;BME280;64233;51.486;6.332;2023-08-06T09:43:02;100264.28;;;17.00;100.00
75640;BME280;64233;51.486;6.332;2023-08-06T09:45:31;100261.63;;;16.58;100.00
75640;BME280;64233;51.486;6.332;2023-08-06T09:47:58;100272.09;;;16.23;100.00
75640;BME280;64233;51.486;6.332;2023-08-06T09:50:31;100281.91;;;16.05;100.00
75640;BME280;64233;51.486;6.332;2023-08-06T09:52:57;100290.03;;;16.05;100.00
75640;BME280;64233;51.486;6.332;2023-08-06T09:55:23;100296.63;;;15.85;100.00
75640;BME280;64233;51.486;6.332;2023-08-06T09:57:50;100296.22;;;15.59;100.00
75640;BME280;64233;51.486;6.332;2023-08-06T10:00:16;100302.31;;;15.12;100.00
75640;BME280;64233;51.486;6.332;2023-08-06T10:02:42;100305.53;;;14.28;100.00
75640;BME280;64233;51.486;6.332;2023-08-06T10:05:08;100330.94;;;14.27;100.00
75640;BME280;64233;51.486;6.332;2023-08-06T10:07:35;100329.56;;;14.29;100.00
75640;BME280;64233;51.486;6.332;2023-08-06T10:10:00;100337.53;;;14.40;100.00
75640;BME280;64233;51.486;6.332;2023-08-06T10:12:28;100346.75;;;14.39;100.00
75640;BME280;64233;51.486;6.332;2023-08-06T10:14:57;100362.59;;;14.45;100.00
75640;BME280;64233;51.486;6.332;2023-08-06T10:17:23;100357.63;;;14.28;100.00
75640;BME280;64233;51.486;6.332;2023-08-06T10:19:50;100353.72;;;14.16;100.00
75640;BME280;64233;51.486;6.332;2023-08-06T10:22:17;100357.00;;;14.12;100.00
75640;BME280;64233;51.486;6.332;2023-08-06T10:27:34;100364.78;;;14.14;100.00
75640;BME280;64233;51.486;6.332;2023-08-06T10:30:32;100361.38;;;14.03;100.00
75640;BME280;64233;51.486;6.332;2023-08-06T10:33:02;100362.50;;;14.02;100.00
75640;BME280;64233;51.486;6.332;2023-08-06T10:35:36;100366.78;;;14.03;100.00
75640;BME280;64233;51.486;6.332;2023-08-06T10:38:07;100367.06;;;14.02;100.00
75640;BME280;64233;51.486;6.332;2023-08-06T10:40:33;100379.94;;;14.10;100.00
75640;BME280;64233;51.486;6.332;2023-08-06T10:43:00;100367.53;;;14.09;100.00
75640;BME280;64233;51.486;6.332;2023-08-06T10:45:26;100363.47;;;14.11;100.00
75640;BME280;64233;51.486;6.332;2023-08-06T10:47:54;100361.06;;;14.10;100.00
75640;BME280;64233;51.486;6.332;2023-08-06T10:50:21;100363.25;;;14.08;100.00
75640;BME280;64233;51.486;6.332;2023-08-06T10:52:47;100365.75;;;13.99;100.00
75640;BME280;64233;51.486;6.332;2023-08-06T10:55:26;100372.16;;;14.03;100.00
75640;BME280;64233;51.486;6.332;2023-08-06T10:57:53;100375.91;;;14.07;100.00
75640;BME280;64233;51.486;6.332;2023-08-06T11:00:20;100383.22;;;14.07;100.00
75640;BME280;64233;51.486;6.332;2023-08-06T11:02:47;100387.84;;;14.01;100.00
75640;BME280;64233;51.486;6.332;2023-08-06T11:05:13;100400.50;;;14.06;100.00
75640;BME280;64233;51.486;6.332;2023-08-06T11:07:38;100392.16;;;14.02;100.00
75640;BME280;64233;51.486;6.332;2023-08-06T11:10:07;100392.41;;;14.06;100.00
75640;BME280;64233;51.486;6.332;2023-08-06T11:12:33;100396.72;;;14.07;100.00
75640;BME280;64233;51.486;6.332;2023-08-06T11:14:59;100401.03;;;14.08;100.00
75640;BME280;64233;51.486;6.332;2023-08-06T11:17:25;100399.78;;;13.95;100.00
75640;BME280;64233;51.486;6.332;2023-08-06T11:19:52;100404.03;;;14.01;100.00
75640;BME280;64233;51.486;6.332;2023-08-06T11:22:19;100414.03;;;14.01;100.00
75640;BME280;64233;51.486;6.332;2023-08-06T11:24:45;100415.44;;;13.93;100.00
75640;BME280;64233;51.486;6.332;2023-08-06T11:27:12;100414.81;;;14.06;100.00
75640;BME280;64233;51.486;6.332;2023-08-06T11:29:38;100409.00;;;13.89;100.00
75640;BME280;64233;51.486;6.332;2023-08-06T11:32:05;100410.28;;;13.97;100.00
75640;BME280;64233;51.486;6.332;2023-08-06T11:34:30;100408.38;;;14.02;100.00
75640;BME280;64233;51.486;6.332;2023-08-06T11:36:56;100409.72;;;14.00;100.00
75640;BME280;64233;51.486;6.332;2023-08-06T11:39:22;100412.91;;;14.07;100.00
75640;BME280;64233;51.486;6.332;2023-08-06T11:41:47;100408.88;;;14.04;100.00
75640;BME280;64233;51.486;6.332;2023-08-06T11:44:13;100422.94;;;14.01;100.00
75640;BME280;64233;51.486;6.332;2023-08-06T11:46:55;100427.88;;;13.89;100.00
75640;BME280;64233;51.486;6.332;2023-08-06T11:49:47;100421.41;;;13.90;100.00
75640;BME280;64233;51.486;6.332;2023-08-06T11:54:40;100441.56;;;13.98;100.00
75640;BME280;64233;51.486;6.332;2023-08-06T11:57:05;100445.81;;;14.09;100.00
75640;BME280;64233;51.486;6.332;2023-08-06T11:59:31;100439.09;;;14.06;100.00
75640;BME280;64233;51.486;6.332;2023-08-06T12:01:56;100447.13;;;14.11;100.00
75640;BME280;64233;51.486;6.332;2023-08-06T12:04:21;100469.56;;;14.12;100.00
75640;BME280;64233;51.486;6.332;2023-08-06T12:06:47;100453.13;;;14.03;100.00
75640;BME280;64233;51.486;6.332;2023-08-06T12:09:12;100457.66;;;14.13;100.00
75640;BME280;64233;51.486;6.332;2023-08-06T12:11:37;100464.16;;;14.12;100.00
75640;BME280;64233;51.486;6.332;2023-08-06T12:14:02;100474.19;;;14.06;100.00
75640;BME280;64233;51.486;6.332;2023-08-06T12:16:28;100475.47;;;14.09;100.00
75640;BME280;64233;51.486;6.332;2023-08-06T12:18:53;100473.53;;;14.20;100.00
75640;BME280;64233;51.486;6.332;2023-08-06T12:21:18;100480.63;;;14.10;100.00
75640;BME280;64233;51.486;6.332;2023-08-06T12:23:43;100485.78;;;14.07;100.00
75640;BME280;64233;51.486;6.332;2023-08-06T12:26:09;100484.91;;;14.11;100.00
75640;BME280;64233;51.486;6.332;2023-08-06T12:28:34;100488.47;;;14.07;100.00
75640;BME280;64233;51.486;6.332;2023-08-06T12:30:59;100479.59;;;14.01;100.00
75640;BME280;64233;51.486;6.332;2023-08-06T12:33:25;100488.00;;;13.94;100.00
75640;BME280;64233;51.486;6.332;2023-08-06T12:35:50;100483.91;;;14.02;100.00
75640;BME280;64233;51.486;6.332;2023-08-06T12:38:15;100489.75;;;14.15;100.00
75640;BME280;64233;51.486;6.332;2023-08-06T12:40:40;100491.38;;;14.16;100.00
75640;BME280;64233;51.486;6.332;2023-08-06T12:43:06;100489.75;;;14.15;100.00